IBE843 OPKC-OMAA
Flight info
| Callsign | IBE843 |
|---|---|
| Flight time | N/A |
| Altitude | 40000 |
| Route | MELOM A325 PARET A454 VUSET R462 MIXAM P899 ROVOS |
| Aircraft | A346/H-SDE2E3FGHIJ3J4J5M1RWXY/LB1D1 |
Departure
| Time | 2026-05-07 06:05 |
|---|---|
| Airport | Jinnah International Airport (OPKC) |
Arrival
| Time | N/A |
|---|---|
| Airport | Zayed International Airport (OMAA) |
| Time | Latitude | Longitude | Altitude | Speed | Heading |
|---|---|---|---|---|---|
| 2026-05-07 05:49 | 24.90300 | 67.16838 | 108 ft | 0 kts | 127° |
| 2026-05-07 05:54 | 24.90307 | 67.16827 | 107 ft | 4 kts | 126° |
| 2026-05-07 05:55 | 24.90323 | 67.16803 | 105 ft | 4 kts | 126° |
| 2026-05-07 05:55 | 24.90339 | 67.16780 | 106 ft | 2 kts | 126° |
| 2026-05-07 05:55 | 24.90351 | 67.16760 | 108 ft | 4 kts | 117° |
| 2026-05-07 05:55 | 24.90361 | 67.16733 | 108 ft | 4 kts | 104° |
| 2026-05-07 05:56 | 24.90366 | 67.16704 | 108 ft | 4 kts | 96° |
| 2026-05-07 05:56 | 24.90368 | 67.16677 | 108 ft | 2 kts | 98° |
| 2026-05-07 05:56 | 24.90369 | 67.16670 | 108 ft | 0 kts | 98° |
| 2026-05-07 05:58 | 24.90369 | 67.16671 | 108 ft | 0 kts | 98° |
| 2026-05-07 06:00 | 24.90369 | 67.16673 | 107 ft | 1 kts | 98° |
| 2026-05-07 06:00 | 24.90370 | 67.16686 | 110 ft | 1 kts | 63° |
| 2026-05-07 06:00 | 24.90377 | 67.16690 | 109 ft | 2 kts | 18° |
| 2026-05-07 06:00 | 24.90429 | 67.16703 | 110 ft | 12 kts | 16° |
| 2026-05-07 06:01 | 24.90495 | 67.16777 | 110 ft | 16 kts | 63° |
| 2026-05-07 06:01 | 24.90528 | 67.16882 | 111 ft | 4 kts | 72° |
| 2026-05-07 06:01 | 24.90539 | 67.16921 | 111 ft | 7 kts | 72° |
| 2026-05-07 06:01 | 24.90558 | 67.16989 | 112 ft | 11 kts | 72° |
| 2026-05-07 06:02 | 24.90583 | 67.17085 | 112 ft | 15 kts | 75° |
| 2026-05-07 06:02 | 24.90590 | 67.17114 | 111 ft | 2 kts | 75° |
| 2026-05-07 06:02 | 24.90594 | 67.17141 | 113 ft | 5 kts | 81° |
| 2026-05-07 06:02 | 24.90604 | 67.17196 | 111 ft | 10 kts | 76° |
| 2026-05-07 06:03 | 24.90625 | 67.17285 | 112 ft | 14 kts | 75° |
| 2026-05-07 06:03 | 24.90669 | 67.17399 | 109 ft | 17 kts | 54° |
| 2026-05-07 06:03 | 24.90733 | 67.17452 | 113 ft | 1 kts | 27° |
| 2026-05-07 06:03 | 24.90743 | 67.17458 | 113 ft | 6 kts | 27° |
| 2026-05-07 06:04 | 24.90803 | 67.17480 | 111 ft | 10 kts | 2° |
| 2026-05-07 06:04 | 24.90853 | 67.17433 | 111 ft | 11 kts | 287° |
| 2026-05-07 06:04 | 24.90854 | 67.17409 | 112 ft | 0 kts | 252° |
| 2026-05-07 06:04 | 24.90830 | 67.17305 | 113 ft | 53 kts | 255° |
| 2026-05-07 06:05 | 24.90637 | 67.16545 | 110 ft | 147 kts | 255° |
| 2026-05-07 06:05 | 24.90318 | 67.15351 | 813 ft | 166 kts | 254° |
| 2026-05-07 06:05 | 24.89932 | 67.14175 | 2027 ft | 165 kts | 240° |
| 2026-05-07 06:05 | 24.89197 | 67.13135 | 3089 ft | 179 kts | 233° |
| 2026-05-07 06:06 | 24.88324 | 67.12063 | 3976 ft | 196 kts | 230° |
| 2026-05-07 06:06 | 24.87361 | 67.10904 | 4855 ft | 214 kts | 229° |
| 2026-05-07 06:06 | 24.86294 | 67.09646 | 5732 ft | 234 kts | 230° |
| 2026-05-07 06:06 | 24.85138 | 67.08274 | 6659 ft | 254 kts | 230° |
| 2026-05-07 06:07 | 24.83906 | 67.06790 | 7691 ft | 268 kts | 231° |
| 2026-05-07 06:07 | 24.82635 | 67.05261 | 9009 ft | 272 kts | 230° |
| 2026-05-07 06:07 | 24.81349 | 67.03720 | 10346 ft | 275 kts | 231° |
| 2026-05-07 06:07 | 24.80043 | 67.02143 | 11583 ft | 281 kts | 233° |
| 2026-05-07 06:08 | 24.79075 | 67.00257 | 12569 ft | 288 kts | 260° |
| 2026-05-07 06:08 | 24.78861 | 66.98030 | 13460 ft | 300 kts | 273° |
| 2026-05-07 06:08 | 24.78858 | 66.95662 | 14220 ft | 318 kts | 274° |
| 2026-05-07 06:08 | 24.78856 | 66.93153 | 14914 ft | 338 kts | 273° |
| 2026-05-07 06:09 | 24.78811 | 66.90489 | 15569 ft | 358 kts | 271° |
| 2026-05-07 06:09 | 24.78722 | 66.87668 | 16189 ft | 378 kts | 270° |
| 2026-05-07 06:09 | 24.78603 | 66.84691 | 16792 ft | 398 kts | 270° |
| 2026-05-07 06:09 | 24.78464 | 66.81609 | 17365 ft | 416 kts | 269° |
| 2026-05-07 06:10 | 24.78304 | 66.78370 | 18171 ft | 427 kts | 269° |
| 2026-05-07 06:10 | 24.78132 | 66.75078 | 19047 ft | 432 kts | 269° |
| 2026-05-07 06:10 | 24.77954 | 66.71768 | 20005 ft | 435 kts | 269° |
| 2026-05-07 06:10 | 24.77772 | 66.68433 | 20945 ft | 437 kts | 269° |
| 2026-05-07 06:11 | 24.77590 | 66.65076 | 21839 ft | 441 kts | 269° |
| 2026-05-07 06:11 | 24.77407 | 66.61688 | 22720 ft | 444 kts | 270° |
| 2026-05-07 06:11 | 24.77224 | 66.58269 | 23540 ft | 448 kts | 270° |
| 2026-05-07 06:11 | 24.77040 | 66.54828 | 24207 ft | 452 kts | 270° |
| 2026-05-07 06:12 | 24.76855 | 66.51349 | 24892 ft | 455 kts | 270° |
| 2026-05-07 06:12 | 24.76669 | 66.47858 | 25585 ft | 458 kts | 270° |
| 2026-05-07 06:12 | 24.76480 | 66.44340 | 26300 ft | 461 kts | 270° |
| 2026-05-07 06:12 | 24.76289 | 66.40796 | 26996 ft | 464 kts | 270° |
| 2026-05-07 06:13 | 24.76095 | 66.37232 | 27692 ft | 467 kts | 270° |
| 2026-05-07 06:13 | 24.75898 | 66.33640 | 28382 ft | 470 kts | 270° |
| 2026-05-07 06:13 | 24.75699 | 66.30027 | 29056 ft | 474 kts | 270° |
| 2026-05-07 06:13 | 24.75498 | 66.26400 | 29831 ft | 474 kts | 270° |
| 2026-05-07 06:14 | 24.75300 | 66.22841 | 30713 ft | 469 kts | 270° |
| 2026-05-07 06:14 | 24.75101 | 66.19277 | 31621 ft | 464 kts | 269° |
| 2026-05-07 06:14 | 24.74902 | 66.15746 | 32499 ft | 460 kts | 269° |
| 2026-05-07 06:14 | 24.74704 | 66.12238 | 33328 ft | 457 kts | 269° |
| 2026-05-07 06:15 | 24.74506 | 66.08745 | 34095 ft | 455 kts | 269° |
| 2026-05-07 06:15 | 24.74310 | 66.05279 | 34791 ft | 452 kts | 269° |
| 2026-05-07 06:15 | 24.74113 | 66.01814 | 35488 ft | 450 kts | 269° |
| 2026-05-07 06:15 | 24.73918 | 65.98388 | 36154 ft | 447 kts | 269° |
| 2026-05-07 06:16 | 24.73722 | 65.94978 | 36798 ft | 445 kts | 268° |
| 2026-05-07 06:16 | 24.73527 | 65.91589 | 37406 ft | 443 kts | 268° |
| 2026-05-07 06:16 | 24.73332 | 65.88205 | 37972 ft | 442 kts | 268° |
| 2026-05-07 06:16 | 24.73136 | 65.84833 | 38477 ft | 441 kts | 268° |
| 2026-05-07 06:17 | 24.72937 | 65.81448 | 38817 ft | 442 kts | 268° |
| 2026-05-07 06:17 | 24.72737 | 65.78065 | 39109 ft | 444 kts | 268° |
| 2026-05-07 06:17 | 24.72535 | 65.74661 | 39393 ft | 446 kts | 268° |
| 2026-05-07 06:17 | 24.72332 | 65.71247 | 39675 ft | 447 kts | 268° |
| 2026-05-07 06:18 | 24.72131 | 65.67861 | 39787 ft | 449 kts | 268° |
| 2026-05-07 06:18 | 24.71720 | 65.60987 | 39787 ft | 449 kts | 268° |
| 2026-05-07 06:19 | 24.71307 | 65.54107 | 39795 ft | 450 kts | 267° |
| 2026-05-07 06:19 | 24.70889 | 65.47226 | 39795 ft | 450 kts | 267° |
| 2026-05-07 06:20 | 24.70468 | 65.40345 | 39798 ft | 450 kts | 267° |
| 2026-05-07 06:20 | 24.70045 | 65.33468 | 39797 ft | 450 kts | 267° |
| 2026-05-07 06:21 | 24.69622 | 65.26625 | 39798 ft | 450 kts | 267° |
| 2026-05-07 06:21 | 24.69192 | 65.19739 | 39796 ft | 451 kts | 267° |
| 2026-05-07 06:22 | 24.68758 | 65.12846 | 39802 ft | 451 kts | 267° |
| 2026-05-07 06:22 | 24.68102 | 65.02528 | 39800 ft | 449 kts | 267° |
| 2026-05-07 06:23 | 24.67663 | 64.95661 | 39796 ft | 450 kts | 267° |
| 2026-05-07 06:23 | 24.67225 | 64.88843 | 39797 ft | 450 kts | 267° |
| 2026-05-07 06:24 | 24.66778 | 64.81964 | 39797 ft | 450 kts | 267° |
| 2026-05-07 06:24 | 24.66328 | 64.75095 | 39797 ft | 450 kts | 267° |
| 2026-05-07 06:25 | 24.65876 | 64.68224 | 39800 ft | 450 kts | 267° |
| 2026-05-07 06:25 | 24.65497 | 64.62509 | 39798 ft | 450 kts | 267° |
| 2026-05-07 06:26 | 24.65038 | 64.55625 | 39798 ft | 450 kts | 267° |
| 2026-05-07 06:26 | 24.64576 | 64.48745 | 39798 ft | 450 kts | 267° |
| 2026-05-07 06:27 | 24.64111 | 64.41874 | 39797 ft | 450 kts | 267° |
| 2026-05-07 06:27 | 24.63643 | 64.34997 | 39796 ft | 450 kts | 267° |
| 2026-05-07 06:28 | 24.63176 | 64.28176 | 39803 ft | 450 kts | 266° |
| 2026-05-07 06:28 | 24.62701 | 64.21293 | 39802 ft | 450 kts | 266° |
| 2026-05-07 06:29 | 24.62222 | 64.14411 | 39798 ft | 450 kts | 266° |
| 2026-05-07 06:29 | 24.61741 | 64.07528 | 39800 ft | 451 kts | 266° |
| 2026-05-07 06:30 | 24.61258 | 64.00647 | 39797 ft | 451 kts | 266° |
| 2026-05-07 06:30 | 24.60770 | 63.93763 | 39798 ft | 451 kts | 266° |
| 2026-05-07 06:31 | 24.60278 | 63.86867 | 39799 ft | 451 kts | 266° |
| 2026-05-07 06:31 | 24.59783 | 63.79979 | 39799 ft | 451 kts | 266° |
| 2026-05-07 06:32 | 24.59285 | 63.73088 | 39798 ft | 451 kts | 266° |
| 2026-05-07 06:32 | 24.59205 | 63.71972 | 39800 ft | 451 kts | 266° |